Arpin, Wisconsin
Current Conditions -  °F | °C
As of 8:54 AM on Saturday 20 Dec 2014 (Local Time) from KMFI Reporting Station
Haze Haze  
Wind Chill: 19°   Ceiling: 2100
Heat Index: 26°   Visibility: 5mi
Dew Point: 23°   Wind: 6mph
Humidity: 88%   Direction: 170°S
Pressure: 30.2"   Gusts: NA
Location:  44.54°N, 90.04°W
Report Text: KMFI 201454Z AUTO 17005KT 5SM BR SCT006 OVC021 M03/M05 A3020 RMK AO2 SLP248 T10331050 55000
Loading
Personal Weather Stations






























Interactive Weather Map New forecast layout! Learn more

10-Day Weather Forecast

Advertisements
Track Severe Weather on mobile